METAR és
SPECI
METAR LHBP 280100Z 08006KT 3000 -FZRA BR SCT003 OVC021 M01/M01 Q1019 NOSIG=
METAR LHBP 280030Z 07007KT 3500 -FZRA BR SCT003 BKN023 M01/M01 Q1020 NOSIG=
METAR LHBP 280000Z 09009KT 4000 -FZRA BR SCT003 OVC023 M01/M01 Q1020 NOSIG=
METAR LHBP 272330Z 08009KT 6000 FEW004 BKN023 M01/M01 Q1020 NOSIG=
METAR LHBP 272300Z 08009KT 6000 FEW005 BKN025 M01/M01 Q1020 NOSIG=
METAR LHBP 272230Z 08010KT 5000 BR SCT005 BKN030 M01/M01 Q1020 NOSIG=
TAF
TAF LHBP 272300Z 2800/2824 07008KT 6000 SCT008 BKN030 TEMPO 2800/2809 3000 -SN BR BKN003 OVC020 TEMPO 2809/2824 2000 -FZRA -RA BKN005 OVC015=
GAMET
Nincs érvényes távirat! 
FAHU41 LHBM 271100
LHCC GAMET VALID 271200/271800 LHBP-
BUDAPEST FIR BLW FL100
SECN 1
SFC VIS: 500-5000 M FG FZFG BR E OF E01900
SIG CLD: BKN/OVC 200-6000/4500 FT AGL
NE OF LINE LHBP-LHSN-LHBC
ICE: MOD NSFC/5000 FT AMSL
SIGMETS APPLICABLE: NIL=
AIRMET
Nincs érvényes távirat! 
WAHU41 LHBM 261640
LHCC AIRMET 01 VALID 261640/261800 LHBP-
LHCC BUDAPEST FIR SFC VIS 0200-1500M FG FZFG BCFG
WI N4834 E02030 - N4834 E02254 - N4700 E02142 -
N4654 E01941 - N4834 E02030 STNR NC=
SIGMET
Nincs érvényes távirat! 
WSHU31 LHBM 181010
LHCC SIGMET 03 VALID 181010/1813010 LHBP-
LHCC BUDAPEST FIR SEV ICE FCST E OF LINE N4555 E01855 -
N4700 E01900 - N4744 E01819 8500FT/FL150 MOV ENE NC=
SIGMET
Vulkáni hamufelhő
Nincs érvényes távirat! 
WVHU31 LHBM 271515 CCA
LHCC SIGMET 03 VALID 271515/271800 LHBP-
LHCC BUDAPEST FIR EXERCISE VOLCEX12/01
CNL VA SIGMET 02 271200/271800
EXERCISE EXERCISE EXERCISE VOLCEX12/01=